Upperstrasburg, PA (17265)

12:54 PM EDT on October 02, 2014 (GMT -0400)
Edenville | Change Station
CLOSE
Current Station
Personal Weather Station
Location: Chambersburg, PA
Elevation: 958 ft
Nearby Weather Stations

Elev 958 ft 39.96 °N, 77.82 °W | Updated 9 seconds ago

Overcast
Overcast
66.0 °F
Feels Like 66.0 °F
N
1.0
Wind Variable Wind from SSE
Gusts 3.0 mph

Today
High -- | Low -- °F
--% Chance of Precip.
Yesterday
High -- | Low -- °F
Precip. -- in
7:08 AM 6:51 PM
First Quarter, 60% visible
Pressure 30.16 in
Visibility 2.0 miles
Clouds Few 1200 ft
Mostly Cloudy 1700 ft
Overcast 4300 ft
Dew Point 60 °F
Humidity 82%
Rainfall 0.00 in
Snow Depth Not available.
UV 2 out of 12
Pollen 2.00 out of 12
Air Quality Not available.
Flu Activity Not available.
METAR KHGR 021553Z 00000KT 2SM HZ FEW012 BKN017 OVC043 19/15 A3014 RMK AO2 SLP213 T01890150

More Conditions Fewer Conditions

Pressure 30.16 in
Visibility 2.0 miles
Clouds Few 1200 ft
Mostly Cloudy 1700 ft
Overcast 4300 ft
Dew Point 60 °F
Humidity 82%
Rainfall 0.00 in
Snow Depth Not available.
UV 2 out of 12
Pollen 2.00 out of 12
Air Quality Not available.
Flu Activity Not available.
METAR KHGR 021553Z 00000KT 2SM HZ FEW012 BKN017 OVC043 19/15 A3014 RMK AO2 SLP213 T01890150

More Conditions Fewer Conditions

10-Day Weather Forecast

Almanac

Astronomy

Oct. 02, 2014 Rise Set
Actual Time 7:08 AM EDT 6:51 PM EDT
Civil Twilight 6:41 AM EDT 7:18 PM EDT
Nautical Twilight 6:09 AM EDT 7:50 PM EDT
Astronomical Twilight 5:38 AM EDT 8:21 PM EDT
Moon 2:56 PM EDT 12:23 AM EDT
Length of Visible Light 12h 37m
Length of Day
11h 43m
Tomorrow will be 2m 36s shorter.
First Quarter, 60% of the Moon is Illuminated
Today
First Quarter
Oct 8
Full
Oct 15
Last Quarter
Oct 23
New
Oct 30
First Quarter

Today's Extremes

State Highs State Lows

Community

WunderPhotos

Upload Photos

1,758,294 photos uploaded!

WunderBlogs® & News

Nearby

Snow Depth

Station Depth Elevation
No new snow has been reported.

Earthquake Activity

City Distance Mag. Time & Date
No recent earthquake activity has been reported nearby.
Minimum magnitude displayed is 2.5.

Coastal Water Temperatures

Place Temperature
No Stations Reporting

Nearby Weather Stations